Time;durP1;ratioP1;P1;durP2;ratioP2;P2;SDS_P1;SDS_P2;PMS_P1;PMS_P2;Temp;Humidity;BMP_temperature;BMP_pressure;BME280_temperature;BME280_humidity;BME280_pressure;Samples;Min_cycle;Max_cycle;Signal;HPM_P1;HPM_P2
2022/12/22 03:26:08;;;;;;;1.50;0.60;;;;;;;;;;20952141;28;20229;-85
2022/12/22 03:36:11;;;;;;;0.40;0.30;;;;;;;;;;20964951;28;20302;-86
2022/12/22 03:46:29;;;;;;;0.60;0.40;;;;;;;;;;20948238;28;20217;-85
2022/12/22 03:56:31;;;;;;;0.57;0.30;;;;;;;;;;20981492;28;20553;-85
2022/12/22 04:06:33;;;;;;;0.97;0.40;;;;;;;;;;20961764;28;20620;-86
2022/12/22 04:16:35;;;;;;;0.63;0.43;;;;;;;;;;20962183;28;20575;-85
2022/12/22 04:26:36;;;;;;;0.50;0.50;;;;;;;;;;20978099;28;20240;-86
2022/12/22 04:36:38;;;;;;;0.40;0.30;;;;;;;;;;20961863;28;20205;-88
2022/12/22 04:46:40;;;;;;;0.30;0.30;;;;;;;;;;20961199;28;20228;-87
2022/12/22 04:56:43;;;;;;;2.37;0.40;;;;;;;;;;20959448;28;20271;-87
2022/12/22 05:06:44;;;;;;;0.20;0.20;;;;;;;;;;20975611;28;20282;-87
2022/12/22 05:16:47;;;;;;;0.33;0.33;;;;;;;;;;20957782;28;20213;-86
2022/12/22 05:26:49;;;;;;;0.97;0.37;;;;;;;;;;20957912;28;20233;-86
2022/12/22 05:36:51;;;;;;;0.40;0.40;;;;;;;;;;20956688;28;20638;-86
2022/12/22 05:46:53;;;;;;;0.20;0.20;;;;;;;;;;20955803;28;20228;-85
2022/12/22 05:56:55;;;;;;;1.33;0.30;;;;;;;;;;20958393;28;20205;-85
2022/12/22 06:06:56;;;;;;;0.70;0.30;;;;;;;;;;20924614;28;20690;-85
2022/12/22 06:16:58;;;;;;;0.40;0.30;;;;;;;;;;20956604;28;20213;-86
2022/12/22 06:27:00;;;;;;;0.67;0.30;;;;;;;;;;20961803;28;20236;-85
2022/12/22 06:37:02;;;;;;;2.43;0.33;;;;;;;;;;20989763;28;20209;-85
2022/12/22 06:47:03;;;;;;;0.20;0.20;;;;;;;;;;20955896;28;20217;-85
2022/12/22 06:57:05;;;;;;;0.50;0.40;;;;;;;;;;20985619;28;20324;-86
2022/12/22 07:07:07;;;;;;;0.90;0.30;;;;;;;;;;20992531;28;20226;-86
2022/12/22 07:17:09;;;;;;;2.23;0.40;;;;;;;;;;20942294;28;20209;-85
2022/12/22 07:27:11;;;;;;;1.67;0.67;;;;;;;;;;20988373;28;20294;-83
2022/12/22 07:37:13;;;;;;;0.40;0.40;;;;;;;;;;21044939;28;20571;-85
2022/12/22 07:47:15;;;;;;;1.70;0.57;;;;;;;;;;20953739;28;20283;-85
2022/12/22 07:57:17;;;;;;;1.50;0.40;;;;;;;;;;20906097;28;20271;-84
2022/12/22 08:07:19;;;;;;;2.30;0.47;;;;;;;;;;20913841;28;20237;-84
2022/12/22 08:17:21;;;;;;;1.20;0.73;;;;;;;;;;20998119;28;20214;-85
2022/12/22 08:27:26;;;;;;;3.33;0.63;;;;;;;;;;20965306;28;20224;-84
2022/12/22 08:37:31;;;;;;;0.57;0.50;;;;;;;;;;20974258;28;20216;-85
2022/12/22 08:47:33;;;;;;;1.17;0.57;;;;;;;;;;20970789;28;20222;-84
2022/12/22 08:57:35;;;;;;;0.77;0.67;;;;;;;;;;20991104;28;20248;-85
2022/12/22 09:07:36;;;;;;;0.70;0.60;;;;;;;;;;20969178;28;20232;-85
2022/12/22 09:17:38;;;;;;;1.23;0.83;;;;;;;;;;20960216;28;20220;-85
2022/12/22 09:27:40;;;;;;;3.10;0.67;;;;;;;;;;21033727;28;20229;-87
2022/12/22 09:37:42;;;;;;;0.20;0.20;;;;;;;;;;21031412;28;20270;-87
2022/12/22 09:47:45;;;;;;;1.83;0.50;;;;;;;;;;20932282;28;20681;-85
2022/12/22 09:57:47;;;;;;;0.70;0.23;;;;;;;;;;20993962;28;20274;-86
2022/12/22 10:07:49;;;;;;;0.50;0.40;;;;;;;;;;20973995;28;20270;-88
2022/12/22 10:18:08;;;;;;;0.60;0.40;;;;;;;;;;20937093;28;20276;-88
2022/12/22 10:28:16;;;;;;;0.47;0.27;;;;;;;;;;20909400;28;20584;-86
2022/12/22 10:38:20;;;;;;;1.40;0.40;;;;;;;;;;20874865;28;20218;-87
2022/12/22 10:48:26;;;;;;;0.20;0.20;;;;;;;;;;20890456;28;20226;-86
2022/12/22 10:58:27;;;;;;;0.13;0.13;;;;;;;;;;20891006;28;20202;-87
2022/12/22 11:08:30;;;;;;;1.20;0.30;;;;;;;;;;20894599;28;20229;-85
2022/12/22 11:18:41;;;;;;;0.33;0.20;;;;;;;;;;20906078;28;20210;-84
2022/12/22 11:28:54;;;;;;;0.73;0.50;;;;;;;;;;20905072;28;20229;-85
2022/12/22 11:39:16;;;;;;;0.20;0.20;;;;;;;;;;20921166;28;20209;-85
2022/12/22 11:49:41;;;;;;;0.10;0.10;;;;;;;;;;20999070;28;20281;-85
2022/12/22 11:59:43;;;;;;;0.10;0.10;;;;;;;;;;20991167;28;20230;-86
2022/12/22 12:09:45;;;;;;;0.13;0.13;;;;;;;;;;20973831;28;20568;-88
2022/12/22 12:19:53;;;;;;;0.20;0.20;;;;;;;;;;21045997;28;20214;-86
2022/12/22 12:29:55;;;;;;;0.20;0.20;;;;;;;;;;20903057;28;20226;-86
2022/12/22 12:40:10;;;;;;;0.37;0.37;;;;;;;;;;20922612;28;20202;-86
2022/12/22 12:50:32;;;;;;;0.10;0.10;;;;;;;;;;20908010;28;20230;-85
2022/12/22 13:00:34;;;;;;;1.80;0.10;;;;;;;;;;20910569;28;20699;-86
2022/12/22 13:10:38;;;;;;;0.40;0.20;;;;;;;;;;20889467;28;20287;-86
2022/12/22 13:20:40;;;;;;;0.20;0.20;;;;;;;;;;20900897;28;20244;-87
2022/12/22 13:30:47;;;;;;;0.50;0.17;;;;;;;;;;20899389;28;20763;-86
2022/12/22 13:40:50;;;;;;;0.10;0.10;;;;;;;;;;20914441;28;20275;-87
2022/12/22 13:50:56;;;;;;;0.20;0.10;;;;;;;;;;20880940;28;20237;-87
2022/12/22 14:01:17;;;;;;;0.10;0.10;;;;;;;;;;20899867;28;20222;-87
2022/12/22 14:11:19;;;;;;;0.20;0.20;;;;;;;;;;20900024;28;20279;-86
2022/12/22 14:21:21;;;;;;;0.20;0.20;;;;;;;;;;20916137;28;20217;-86
2022/12/22 14:31:23;;;;;;;0.20;0.20;;;;;;;;;;20891620;28;20299;-87
2022/12/22 14:41:40;;;;;;;0.33;0.30;;;;;;;;;;20891447;28;20271;-86
2022/12/22 14:51:42;;;;;;;0.57;0.40;;;;;;;;;;20900671;28;20287;-85
2022/12/22 15:01:55;;;;;;;0.20;0.20;;;;;;;;;;20904386;28;20214;-84
2022/12/22 15:12:10;;;;;;;0.53;0.20;;;;;;;;;;20902857;28;20274;-84
2022/12/22 15:22:12;;;;;;;0.60;0.33;;;;;;;;;;20918792;28;20210;-85
2022/12/22 15:32:14;;;;;;;2.83;0.67;;;;;;;;;;20918217;28;20230;-85
2022/12/22 15:42:15;;;;;;;3.17;0.97;;;;;;;;;;20884205;28;20213;-85
2022/12/22 15:52:17;;;;;;;10.87;1.67;;;;;;;;;;20900698;28;20222;-86
2022/12/22 16:02:19;;;;;;;3.53;0.97;;;;;;;;;;20900628;28;20210;-86
2022/12/22 16:12:21;;;;;;;7.53;1.20;;;;;;;;;;20920425;28;20230;-86
2022/12/22 16:22:41;;;;;;;4.17;1.10;;;;;;;;;;20900032;28;20222;-85
2022/12/22 16:32:44;;;;;;;5.80;1.90;;;;;;;;;;20916038;28;20205;-85
2022/12/22 16:42:50;;;;;;;6.50;2.17;;;;;;;;;;20914688;28;20218;-87
2022/12/22 16:52:52;;;;;;;5.93;1.87;;;;;;;;;;20895452;28;20228;-84
2022/12/22 17:03:02;;;;;;;2.17;1.17;;;;;;;;;;20910585;28;20233;-85
2022/12/22 17:13:04;;;;;;;2.83;0.87;;;;;;;;;;20909960;28;20214;-86
2022/12/22 17:23:06;;;;;;;6.60;1.20;;;;;;;;;;20909340;28;20221;-86
2022/12/22 17:33:13;;;;;;;2.40;1.00;;;;;;;;;;20891984;28;20225;-86
2022/12/22 17:43:15;;;;;;;7.77;2.17;;;;;;;;;;20860872;28;20691;-87
2022/12/22 17:53:19;;;;;;;6.17;1.43;;;;;;;;;;20890952;28;20222;-87
2022/12/22 18:03:20;;;;;;;3.93;1.43;;;;;;;;;;20906635;28;20650;-86
2022/12/22 18:13:24;;;;;;;6.40;1.97;;;;;;;;;;20873695;28;20210;-87
2022/12/22 18:23:27;;;;;;;3.50;1.10;;;;;;;;;;20912873;28;20252;-87
2022/12/22 18:33:29;;;;;;;6.67;1.47;;;;;;;;;;20890420;28;20221;-88
2022/12/22 18:43:31;;;;;;;3.23;1.37;;;;;;;;;;20922573;28;20210;-88
2022/12/22 18:53:33;;;;;;;3.00;1.33;;;;;;;;;;20891772;28;20272;-87
2022/12/22 19:03:36;;;;;;;3.07;1.30;;;;;;;;;;20903665;28;20260;-87
2022/12/22 19:13:39;;;;;;;4.00;1.50;;;;;;;;;;20902647;28;20251;-88
2022/12/22 19:23:41;;;;;;;6.00;0.93;;;;;;;;;;20922235;28;20270;-87
2022/12/22 19:33:43;;;;;;;2.67;1.17;;;;;;;;;;20900653;28;20230;-86
2022/12/22 19:43:47;;;;;;;2.33;0.97;;;;;;;;;;20917867;28;20213;-87
2022/12/22 19:53:50;;;;;;;2.03;0.70;;;;;;;;;;20900896;28;20214;-87
2022/12/22 20:03:52;;;;;;;2.80;0.93;;;;;;;;;;20882359;28;20218;-88
2022/12/22 20:13:53;;;;;;;1.30;0.80;;;;;;;;;;20914543;28;20206;-86
2022/12/22 20:23:57;;;;;;;2.80;1.07;;;;;;;;;;20897267;28;20303;-88
2022/12/22 20:45:20;;;;;;;3.83;1.67;;;;;;;;;;20916351;28;20221;-87
2022/12/22 20:55:24;;;;;;;1.33;0.63;;;;;;;;;;20925139;28;20244;-87
2022/12/22 21:05:26;;;;;;;1.10;0.50;;;;;;;;;;20920205;28;20222;-87
2022/12/22 21:15:28;;;;;;;2.10;1.00;;;;;;;;;;20917615;28;20217;-87
2022/12/22 21:25:30;;;;;;;2.47;0.90;;;;;;;;;;20916986;28;20284;-87
2022/12/22 21:35:35;;;;;;;1.97;1.00;;;;;;;;;;20938873;28;20217;-88
2022/12/22 21:45:37;;;;;;;1.23;0.60;;;;;;;;;;20895744;28;20237;-87
2022/12/22 21:55:41;;;;;;;1.70;0.60;;;;;;;;;;20879887;28;20758;-88
2022/12/22 22:05:43;;;;;;;1.37;0.93;;;;;;;;;;20880564;28;20252;-87
2022/12/22 22:15:45;;;;;;;0.53;0.40;;;;;;;;;;20879042;28;20202;-87
2022/12/22 22:25:47;;;;;;;1.17;0.50;;;;;;;;;;20877806;28;20221;-87
2022/12/22 22:35:52;;;;;;;1.10;0.47;;;;;;;;;;20878474;28;20218;-86
2022/12/22 22:45:54;;;;;;;1.97;0.97;;;;;;;;;;20925627;28;20726;-87
2022/12/22 22:56:01;;;;;;;1.23;0.67;;;;;;;;;;20876548;28;20283;-87
2022/12/22 23:06:03;;;;;;;0.90;0.63;;;;;;;;;;20892261;28;20248;-87
2022/12/22 23:16:05;;;;;;;0.80;0.63;;;;;;;;;;20907997;28;20214;-87
2022/12/22 23:26:10;;;;;;;1.03;0.40;;;;;;;;;;20913634;28;20711;-88
2022/12/22 23:36:11;;;;;;;1.63;0.60;;;;;;;;;;20923530;28;20268;-87
2022/12/22 23:46:14;;;;;;;0.70;0.40;;;;;;;;;;20906044;28;20853;-87
2022/12/22 23:56:16;;;;;;;0.53;0.30;;;;;;;;;;20905580;28;20275;-87
